createdAt,value
2018-07-03T00:01:29.623Z,20.07
2018-07-03T00:03:58.342Z,20.06
2018-07-03T00:06:27.098Z,20.03
2018-07-03T00:08:55.767Z,20.00
2018-07-03T00:11:24.503Z,19.96
2018-07-03T00:13:53.559Z,19.93
2018-07-03T00:16:27.326Z,19.90
2018-07-03T00:18:55.994Z,19.76
2018-07-03T00:21:24.724Z,19.60
2018-07-03T00:23:53.408Z,19.44
2018-07-03T00:26:22.119Z,19.59
2018-07-03T00:28:50.833Z,19.58
2018-07-03T00:31:19.504Z,19.53
2018-07-03T00:33:48.198Z,19.64
2018-07-03T00:36:16.886Z,19.62
2018-07-03T00:38:45.571Z,19.63
2018-07-03T00:41:14.342Z,19.72
2018-07-03T00:43:43.003Z,19.80
2018-07-03T00:46:11.675Z,19.84
2018-07-03T00:48:40.362Z,19.84
2018-07-03T00:51:09.008Z,19.86
2018-07-03T00:53:37.774Z,19.85
2018-07-03T00:56:06.696Z,19.84
2018-07-03T00:58:35.360Z,19.79
2018-07-03T01:01:04.076Z,19.80
2018-07-03T01:03:32.757Z,19.68
2018-07-03T01:06:01.387Z,19.61
2018-07-03T01:08:30.071Z,19.62
2018-07-03T01:10:59.216Z,19.60
2018-07-03T01:13:27.923Z,19.57
2018-07-03T01:15:56.683Z,19.53
2018-07-03T01:18:25.314Z,19.61
2018-07-03T01:20:53.998Z,19.65
2018-07-03T01:23:22.698Z,19.57
2018-07-03T01:25:51.421Z,19.57
2018-07-03T01:28:20.083Z,19.53
2018-07-03T01:30:48.716Z,19.55
2018-07-03T01:33:17.442Z,19.48
2018-07-03T01:35:46.096Z,19.48
2018-07-03T01:38:14.784Z,19.47
2018-07-03T01:40:43.458Z,19.33
2018-07-03T01:43:12.129Z,19.29
2018-07-03T01:45:40.850Z,19.27
2018-07-03T01:48:09.610Z,19.19
2018-07-03T01:50:38.235Z,19.13
2018-07-03T01:53:06.990Z,19.05
2018-07-03T01:55:35.650Z,19.01
2018-07-03T01:58:04.372Z,18.95
2018-07-03T02:00:33.115Z,18.96
2018-07-03T02:03:04.546Z,18.78
2018-07-03T02:05:33.229Z,18.88
2018-07-03T02:08:01.915Z,18.55
2018-07-03T02:10:30.623Z,18.22
2018-07-03T02:12:59.275Z,18.27
2018-07-03T02:15:27.947Z,18.38
2018-07-03T02:17:56.578Z,18.58
2018-07-03T02:20:25.256Z,18.64
2018-07-03T02:22:53.919Z,18.71
2018-07-03T02:25:22.594Z,18.70
2018-07-03T02:27:51.276Z,18.74
2018-07-03T02:30:19.986Z,18.69
2018-07-03T02:32:48.637Z,18.68
2018-07-03T02:35:17.328Z,18.66
2018-07-03T02:37:46.010Z,18.63
2018-07-03T02:40:14.783Z,18.64
2018-07-03T02:42:43.475Z,18.65
2018-07-03T02:45:12.243Z,18.70
2018-07-03T02:47:40.902Z,18.72
2018-07-03T02:50:09.623Z,18.71
2018-07-03T02:52:38.312Z,18.68
2018-07-03T02:55:07.032Z,18.74
2018-07-03T02:57:35.776Z,18.74
2018-07-03T03:00:06.002Z,18.62
2018-07-03T03:02:34.922Z,18.69
2018-07-03T03:05:03.711Z,18.59
2018-07-03T03:07:32.407Z,18.55
2018-07-03T03:10:01.058Z,18.47
2018-07-03T03:12:29.732Z,18.49
2018-07-03T03:14:58.406Z,18.33
2018-07-03T03:17:27.114Z,18.10
2018-07-03T03:19:55.841Z,18.39
2018-07-03T03:22:24.552Z,18.32
2018-07-03T03:24:53.369Z,18.27
2018-07-03T03:27:22.082Z,18.14
2018-07-03T03:29:50.780Z,18.24
2018-07-03T03:32:19.499Z,18.32
2018-07-03T03:34:48.174Z,18.32
2018-07-03T03:37:16.853Z,18.33
2018-07-03T03:39:45.594Z,18.05
2018-07-03T03:42:14.322Z,17.87
2018-07-03T03:44:43.085Z,17.92
2018-07-03T03:47:11.810Z,17.91
2018-07-03T03:49:40.513Z,17.93
2018-07-03T03:52:09.215Z,18.09
2018-07-03T03:54:37.945Z,18.12
2018-07-03T03:57:06.960Z,18.25
2018-07-03T03:59:35.703Z,18.45
2018-07-03T04:02:04.451Z,18.60
2018-07-03T04:04:33.174Z,18.76
2018-07-03T04:07:01.895Z,18.82
2018-07-03T04:09:30.578Z,18.95
2018-07-03T04:11:59.290Z,18.99
2018-07-03T04:14:27.964Z,19.07
2018-07-03T04:16:56.664Z,19.06
2018-07-03T04:19:25.354Z,19.10
2018-07-03T04:21:54.072Z,19.27
2018-07-03T04:24:22.734Z,19.35
2018-07-03T04:26:51.468Z,19.43
2018-07-03T04:29:20.161Z,19.52
2018-07-03T04:31:48.948Z,19.54
2018-07-03T04:34:17.635Z,19.63
2018-07-03T04:36:46.311Z,19.64
2018-07-03T04:39:15.054Z,19.75
2018-07-03T04:41:43.771Z,19.84
2018-07-03T04:44:12.602Z,19.88
2018-07-03T04:46:41.302Z,19.96
2018-07-03T04:49:10.011Z,20.00
2018-07-03T04:51:38.790Z,20.07
2018-07-03T04:54:07.530Z,20.21
2018-07-03T04:56:36.206Z,20.16
2018-07-03T04:59:04.911Z,20.27
2018-07-03T05:01:33.603Z,20.36
2018-07-03T05:04:02.328Z,20.40
2018-07-03T05:06:31.000Z,20.49
2018-07-03T05:08:59.725Z,20.55
2018-07-03T05:11:28.478Z,20.56
2018-07-03T05:13:57.177Z,20.65
2018-07-03T05:16:25.871Z,20.68
2018-07-03T05:18:54.559Z,20.70
2018-07-03T05:21:23.242Z,20.76
2018-07-03T05:23:51.930Z,20.66
2018-07-03T05:26:20.606Z,20.57
2018-07-03T05:28:49.348Z,20.68
2018-07-03T05:31:18.147Z,20.81
2018-07-03T05:33:46.897Z,20.92
2018-07-03T05:36:15.647Z,20.99
2018-07-03T05:38:44.313Z,21.06
2018-07-03T05:41:13.087Z,21.12
2018-07-03T05:43:41.810Z,21.21
2018-07-03T05:46:10.608Z,21.22
2018-07-03T05:48:39.348Z,21.37
2018-07-03T05:51:08.064Z,21.42
2018-07-03T05:53:36.777Z,21.48
2018-07-03T05:56:05.566Z,21.58
2018-07-03T05:58:34.242Z,21.58
2018-07-03T06:01:03.014Z,21.69
2018-07-03T06:03:31.688Z,21.74
2018-07-03T06:06:00.372Z,21.73
2018-07-03T06:08:29.107Z,21.82
2018-07-03T06:10:57.911Z,21.87
2018-07-03T06:13:26.592Z,22.01
2018-07-03T06:15:55.291Z,21.86
2018-07-03T06:18:24.118Z,22.00
2018-07-03T06:20:52.857Z,22.02
2018-07-03T06:23:21.507Z,22.11
2018-07-03T06:25:50.167Z,22.26
2018-07-03T06:28:18.947Z,22.33
2018-07-03T06:30:47.681Z,22.45
2018-07-03T06:33:16.451Z,22.43
2018-07-03T06:35:45.129Z,22.51
2018-07-03T06:38:13.880Z,22.52
2018-07-03T06:40:42.591Z,22.62
2018-07-03T06:43:11.234Z,22.76
2018-07-03T06:45:40.007Z,22.84
2018-07-03T06:48:08.729Z,22.71
2018-07-03T06:50:37.482Z,22.73
2018-07-03T06:53:06.170Z,22.78
2018-07-03T06:55:34.879Z,22.83
2018-07-03T06:58:03.574Z,22.79
2018-07-03T07:00:32.704Z,22.86
2018-07-03T07:03:01.478Z,22.80
2018-07-03T07:05:30.315Z,22.84
2018-07-03T07:08:15.250Z,22.93
2018-07-03T07:10:50.517Z,23.05
2018-07-03T07:13:19.212Z,23.01
2018-07-03T07:15:47.929Z,23.10
2018-07-03T07:18:16.602Z,23.13
2018-07-03T07:20:45.313Z,23.27
2018-07-03T07:23:13.998Z,23.40
2018-07-03T07:25:42.658Z,23.47
2018-07-03T07:28:11.366Z,23.58
2018-07-03T07:30:40.059Z,23.61
2018-07-03T07:33:08.735Z,23.59
2018-07-03T07:35:37.407Z,23.60
2018-07-03T07:38:06.400Z,23.72
2018-07-03T07:40:35.091Z,23.89
2018-07-03T07:43:03.835Z,23.97
2018-07-03T07:45:32.512Z,24.14
2018-07-03T07:48:01.214Z,24.19
2018-07-03T07:50:29.936Z,24.33
2018-07-03T07:52:58.626Z,24.40
2018-07-03T07:55:27.903Z,24.42
2018-07-03T07:57:56.602Z,24.44
2018-07-03T08:00:25.283Z,24.58
2018-07-03T08:02:54.179Z,24.63
2018-07-03T08:05:22.820Z,24.71
2018-07-03T08:07:51.493Z,24.72
2018-07-03T08:10:21.097Z,24.75
2018-07-03T08:12:50.110Z,24.86
2018-07-03T08:15:18.861Z,24.95
2018-07-03T08:17:47.568Z,25.00
2018-07-03T08:20:16.329Z,25.12
2018-07-03T08:22:44.993Z,25.12
2018-07-03T08:25:13.699Z,25.22
2018-07-03T08:27:42.359Z,25.21
2018-07-03T08:30:11.135Z,25.32
2018-07-03T08:32:39.929Z,25.42
2018-07-03T08:35:08.615Z,25.63
2018-07-03T08:37:37.313Z,25.77
2018-07-03T08:40:07.341Z,25.79
2018-07-03T08:42:36.141Z,26.04
2018-07-03T08:45:05.466Z,26.18
2018-07-03T08:47:34.102Z,26.22
2018-07-03T08:50:02.760Z,26.25
2018-07-03T08:52:31.471Z,26.23
2018-07-03T08:55:00.284Z,26.48
2018-07-03T08:57:29.018Z,26.53
2018-07-03T08:59:57.667Z,26.67
2018-07-03T09:02:26.376Z,26.84
2018-07-03T09:04:55.070Z,26.90
2018-07-03T09:07:24.074Z,26.97
2018-07-03T09:09:52.830Z,27.04
2018-07-03T09:12:21.514Z,26.99
2018-07-03T09:14:50.207Z,27.07
2018-07-03T09:17:24.030Z,27.28
2018-07-03T09:19:53.194Z,27.40
2018-07-03T09:22:21.995Z,27.20
2018-07-03T09:24:50.664Z,27.34
2018-07-03T09:27:19.406Z,27.50
2018-07-03T09:29:48.183Z,27.44
2018-07-03T09:32:16.925Z,27.48
2018-07-03T09:34:45.868Z,27.71
2018-07-03T09:37:14.555Z,27.78
2018-07-03T09:39:43.221Z,27.98
2018-07-03T09:42:12.280Z,28.26
2018-07-03T09:44:40.969Z,28.37
2018-07-03T09:47:09.652Z,28.42
2018-07-03T09:49:38.368Z,28.48
2018-07-03T09:52:07.075Z,28.48
2018-07-03T09:54:35.815Z,28.70
2018-07-03T09:57:04.489Z,28.93
2018-07-03T09:59:33.162Z,28.72
2018-07-03T10:02:01.980Z,28.48
2018-07-03T10:04:30.725Z,28.23
2018-07-03T10:06:59.401Z,28.13
2018-07-03T10:09:28.129Z,28.21
2018-07-03T10:11:57.390Z,28.37
2018-07-03T10:14:26.164Z,28.49
2018-07-03T10:16:56.015Z,28.64
2018-07-03T10:19:24.755Z,28.79
2018-07-03T10:21:53.527Z,28.78
2018-07-03T10:24:22.244Z,28.89
2018-07-03T10:26:50.920Z,28.85
2018-07-03T10:29:19.619Z,28.89
2018-07-03T10:31:48.361Z,28.93
2018-07-03T10:34:17.055Z,28.72
2018-07-03T10:36:45.842Z,28.58
2018-07-03T10:39:15.067Z,28.95
2018-07-03T10:41:43.743Z,28.86
2018-07-03T10:44:12.475Z,28.75
2018-07-03T10:46:41.171Z,28.89
2018-07-03T10:49:09.976Z,29.01
2018-07-03T10:51:38.647Z,28.95
2018-07-03T10:54:07.374Z,28.64
2018-07-03T10:56:36.086Z,28.79
2018-07-03T10:59:04.806Z,29.16
2018-07-03T11:01:33.448Z,29.59
2018-07-03T11:04:02.138Z,29.91
2018-07-03T11:06:30.826Z,30.25
2018-07-03T11:08:59.506Z,30.41
2018-07-03T11:11:28.198Z,30.48
2018-07-03T11:13:57.597Z,30.88
2018-07-03T11:16:26.243Z,31.10
2018-07-03T11:18:54.938Z,31.43
2018-07-03T11:21:23.619Z,32.00
2018-07-03T11:23:52.398Z,32.66
2018-07-03T11:26:21.117Z,33.24
2018-07-03T11:28:49.842Z,33.55
2018-07-03T11:31:18.596Z,33.55
2018-07-03T11:33:47.411Z,34.18
2018-07-03T11:36:16.065Z,33.56
2018-07-03T11:38:45.029Z,33.75
2018-07-03T11:41:13.743Z,33.83
2018-07-03T11:43:42.481Z,34.23
2018-07-03T11:46:11.308Z,34.40
2018-07-03T11:48:40.053Z,34.54
2018-07-03T11:51:08.786Z,34.50
2018-07-03T11:53:37.605Z,34.27
2018-07-03T11:56:06.301Z,34.23
2018-07-03T11:58:34.963Z,34.41
2018-07-03T12:01:03.822Z,34.43
2018-07-03T12:03:32.626Z,34.88
2018-07-03T12:06:01.399Z,35.07
2018-07-03T12:08:30.134Z,34.77
2018-07-03T12:10:58.837Z,34.93
2018-07-03T12:13:28.335Z,34.88
2018-07-03T12:15:57.055Z,35.25
2018-07-03T12:18:31.068Z,35.14
2018-07-03T12:20:59.768Z,34.86
2018-07-03T12:23:28.449Z,34.63
2018-07-03T12:25:57.152Z,34.82
2018-07-03T12:28:25.972Z,33.95
2018-07-03T12:30:54.697Z,34.16
2018-07-03T12:33:23.456Z,34.16
2018-07-03T12:35:52.116Z,34.41
2018-07-03T12:38:20.823Z,33.97
2018-07-03T12:40:49.593Z,33.69
2018-07-03T12:43:19.274Z,33.96
2018-07-03T12:45:48.007Z,33.81
2018-07-03T12:48:17.036Z,34.19
2018-07-03T12:50:45.816Z,34.86
2018-07-03T12:53:14.524Z,35.39
2018-07-03T12:55:43.256Z,35.51
2018-07-03T12:58:12.000Z,35.60
2018-07-03T13:00:40.731Z,35.85
2018-07-03T13:03:09.443Z,35.16
2018-07-03T13:05:38.143Z,35.03
2018-07-03T13:08:06.935Z,35.54
2018-07-03T13:10:35.798Z,35.50
2018-07-03T13:13:04.616Z,35.78
2018-07-03T13:15:33.342Z,36.00
2018-07-03T13:18:07.686Z,36.29
2018-07-03T13:20:36.427Z,36.23
2018-07-03T13:23:05.213Z,36.52
2018-07-03T13:25:34.407Z,36.25
2018-07-03T13:28:03.084Z,36.02
2018-07-03T13:30:31.803Z,36.11
2018-07-03T13:33:00.534Z,36.55
2018-07-03T13:35:29.361Z,36.72
2018-07-03T13:37:58.014Z,36.05
2018-07-03T13:40:26.844Z,35.94
2018-07-03T13:42:55.792Z,36.31
2018-07-03T13:45:25.392Z,36.04
2018-07-03T13:47:54.110Z,35.92
2018-07-03T13:50:22.803Z,35.75
2018-07-03T13:52:51.478Z,34.49
2018-07-03T13:55:20.189Z,33.95
2018-07-03T13:57:48.841Z,33.89
2018-07-03T14:00:17.626Z,34.57
2018-07-03T14:02:47.772Z,35.25
2018-07-03T14:05:16.616Z,35.62
2018-07-03T14:07:45.323Z,36.13
2018-07-03T14:10:14.210Z,36.28
2018-07-03T14:12:42.926Z,36.31
2018-07-03T14:15:11.596Z,36.29
2018-07-03T14:17:40.393Z,36.38
2018-07-03T14:20:09.144Z,35.80
2018-07-03T14:22:37.815Z,35.95
2018-07-03T14:25:06.555Z,36.48
2018-07-03T14:27:35.848Z,36.52
2018-07-03T14:30:06.078Z,36.59
2018-07-03T14:32:34.777Z,36.46
2018-07-03T14:35:03.524Z,36.72
2018-07-03T14:37:32.292Z,36.55
2018-07-03T14:40:01.043Z,36.95
2018-07-03T14:42:29.750Z,36.52
2018-07-03T14:44:58.466Z,35.82
2018-07-03T14:47:27.144Z,36.13
2018-07-03T14:49:55.823Z,35.87
2018-07-03T14:52:24.648Z,35.30
2018-07-03T14:54:53.405Z,35.41
2018-07-03T14:57:22.059Z,35.94
2018-07-03T14:59:50.748Z,36.02
2018-07-03T15:02:19.481Z,36.44
2018-07-03T15:04:48.171Z,36.32
2018-07-03T15:07:16.911Z,36.59
2018-07-03T15:09:45.641Z,36.68
2018-07-03T15:12:14.314Z,36.47
2018-07-03T15:14:43.042Z,36.40
2018-07-03T15:17:11.748Z,36.67
2018-07-03T15:19:45.612Z,36.62
2018-07-03T15:22:14.878Z,36.64
2018-07-03T15:24:43.627Z,36.66
2018-07-03T15:27:12.334Z,37.21
2018-07-03T15:29:41.050Z,36.96
2018-07-03T15:32:09.718Z,36.55
2018-07-03T15:34:38.375Z,36.16
2018-07-03T15:37:07.124Z,36.06
2018-07-03T15:39:35.840Z,35.73
2018-07-03T15:42:04.565Z,35.62
2018-07-03T15:44:44.437Z,35.11
2018-07-03T15:47:13.080Z,34.51
2018-07-03T15:49:41.727Z,33.90
2018-07-03T15:52:10.491Z,33.33
2018-07-03T15:54:39.133Z,32.97
2018-07-03T15:57:07.808Z,33.03
2018-07-03T15:59:36.533Z,33.32
2018-07-03T16:02:05.267Z,33.58
2018-07-03T16:05:00.171Z,33.71
2018-07-03T16:07:44.306Z,33.97
2018-07-03T16:10:13.072Z,33.81
2018-07-03T16:12:41.755Z,33.96
2018-07-03T16:15:10.419Z,33.94
2018-07-03T16:17:39.191Z,33.46
2018-07-03T16:20:13.041Z,32.99
2018-07-03T16:22:41.758Z,32.61
2018-07-03T16:25:10.510Z,32.36
2018-07-03T16:27:39.226Z,32.21
2018-07-03T16:30:08.932Z,32.02
2018-07-03T16:32:38.000Z,31.84
2018-07-03T16:35:06.976Z,31.58
2018-07-03T16:37:35.948Z,31.44
2018-07-03T16:40:04.849Z,31.15
2018-07-03T16:42:33.600Z,30.97
2018-07-03T16:45:02.307Z,30.68
2018-07-03T16:47:31.117Z,30.64
2018-07-03T16:49:59.810Z,30.74
2018-07-03T16:52:28.523Z,30.94
2018-07-03T16:54:57.177Z,30.93
2018-07-03T16:57:25.943Z,31.11
2018-07-03T16:59:55.134Z,31.02
2018-07-03T17:02:23.782Z,31.09
2018-07-03T17:04:52.477Z,31.01
2018-07-03T17:07:21.162Z,31.17
2018-07-03T17:09:49.790Z,31.08
2018-07-03T17:12:18.495Z,30.82
2018-07-03T17:14:47.117Z,30.58
2018-07-03T17:17:15.794Z,30.40
2018-07-03T17:19:44.433Z,30.25
2018-07-03T17:22:13.141Z,30.06
2018-07-03T17:24:42.199Z,29.76
2018-07-03T17:27:10.926Z,29.75
2018-07-03T17:29:39.590Z,29.62
2018-07-03T17:32:08.338Z,29.39
2018-07-03T17:34:37.008Z,28.86
2018-07-03T17:37:05.742Z,28.56
2018-07-03T17:39:45.570Z,28.29
2018-07-03T17:42:25.290Z,27.80
2018-07-03T17:46:03.352Z,27.69
2018-07-03T17:48:32.113Z,27.56
2018-07-03T17:51:00.817Z,27.06
2018-07-03T17:53:29.639Z,27.08
2018-07-03T17:55:58.939Z,27.05
2018-07-03T17:58:27.696Z,27.06
2018-07-03T18:00:56.581Z,27.13
2018-07-03T18:03:25.294Z,27.09
2018-07-03T18:05:54.061Z,26.99
2018-07-03T18:08:22.761Z,26.78
2018-07-03T18:10:51.501Z,26.71
2018-07-03T18:13:20.341Z,26.64
2018-07-03T18:15:49.203Z,26.59
2018-07-03T18:18:17.904Z,26.57
2018-07-03T18:20:46.591Z,26.48
2018-07-03T18:23:15.329Z,26.33
2018-07-03T18:25:44.039Z,26.26
2018-07-03T18:28:12.797Z,26.07
2018-07-03T18:30:41.530Z,26.02
2018-07-03T18:33:11.194Z,25.73
2018-07-03T18:35:39.982Z,25.83
2018-07-03T18:38:09.716Z,25.69
2018-07-03T18:40:38.411Z,25.63
2018-07-03T18:43:07.127Z,25.62
2018-07-03T18:45:35.888Z,25.64
2018-07-03T18:48:05.294Z,25.59
2018-07-03T18:50:34.058Z,25.53
2018-07-03T18:53:02.759Z,25.40
2018-07-03T18:55:31.728Z,25.29
2018-07-03T18:58:00.604Z,25.34
2018-07-03T19:00:29.439Z,25.28
2018-07-03T19:02:59.984Z,25.18
2018-07-03T19:05:28.904Z,25.13
2018-07-03T19:07:57.683Z,25.01
2018-07-03T19:10:26.415Z,24.85
2018-07-03T19:12:55.153Z,24.81
2018-07-03T19:15:23.937Z,24.80
2018-07-03T19:17:52.723Z,24.81
2018-07-03T19:20:21.540Z,24.78
2018-07-03T19:22:50.284Z,24.77
2018-07-03T19:25:19.048Z,24.77
2018-07-03T19:27:47.885Z,24.78
2018-07-03T19:30:17.944Z,24.66
2018-07-03T19:32:46.727Z,24.58
2018-07-03T19:35:15.557Z,24.66
2018-07-03T19:37:44.227Z,24.51
2018-07-03T19:40:13.264Z,24.42
2018-07-03T19:43:45.161Z,24.43
2018-07-03T19:46:13.969Z,24.37
2018-07-03T19:48:42.791Z,24.41
2018-07-03T19:51:11.574Z,24.32
2018-07-03T19:53:40.443Z,24.40
2018-07-03T19:56:09.239Z,24.38
2018-07-03T19:58:38.020Z,24.38
2018-07-03T20:01:06.818Z,24.30
2018-07-03T20:03:35.487Z,24.23
2018-07-03T20:06:04.335Z,24.30
2018-07-03T20:08:33.288Z,24.13
2018-07-03T20:11:03.077Z,24.23
2018-07-03T20:13:31.909Z,24.21
2018-07-03T20:16:00.654Z,24.27
2018-07-03T20:18:29.292Z,24.34
2018-07-03T20:20:58.059Z,24.34
2018-07-03T20:23:27.432Z,24.21
2018-07-03T20:25:56.176Z,24.18
2018-07-03T20:28:24.932Z,24.23
2018-07-03T20:30:53.637Z,24.18
2018-07-03T20:33:22.401Z,24.09
2018-07-03T20:35:51.065Z,23.99
2018-07-03T20:38:19.779Z,23.87
2018-07-03T20:41:10.262Z,23.85
2018-07-03T20:43:40.171Z,23.80
2018-07-03T20:46:09.691Z,23.69
2018-07-03T20:48:38.437Z,23.75
2018-07-03T20:51:07.195Z,23.73
2018-07-03T20:53:36.027Z,23.71
2018-07-03T20:56:04.900Z,23.73
2018-07-03T20:58:33.573Z,23.64
2018-07-03T21:01:02.319Z,23.66
2018-07-03T21:03:31.011Z,23.63
2018-07-03T21:05:59.759Z,23.49
2018-07-03T21:08:28.422Z,23.38
2018-07-03T21:10:57.166Z,23.39
2018-07-03T21:13:26.044Z,23.34
2018-07-03T21:15:54.948Z,23.33
2018-07-03T21:18:23.657Z,23.32
2018-07-03T21:20:52.422Z,23.34
2018-07-03T21:23:21.166Z,23.36
2018-07-03T21:25:49.822Z,23.31
2018-07-03T21:28:18.530Z,23.20
2018-07-03T21:30:47.276Z,23.06
2018-07-03T21:33:16.011Z,23.04
2018-07-03T21:35:45.187Z,23.01
2018-07-03T21:38:13.874Z,22.97
2018-07-03T21:40:42.592Z,22.95
2018-07-03T21:43:11.347Z,22.96
2018-07-03T21:45:40.011Z,22.96
2018-07-03T21:48:08.727Z,22.95
2018-07-03T21:50:37.496Z,22.97
2018-07-03T21:53:06.329Z,22.95
2018-07-03T21:55:35.052Z,22.94
2018-07-03T21:58:03.947Z,22.90
2018-07-03T22:00:35.569Z,22.88
2018-07-03T22:03:05.639Z,22.83
2018-07-03T22:05:34.381Z,22.78
2018-07-03T22:08:03.307Z,22.73
2018-07-03T22:10:32.309Z,22.69
2018-07-03T22:13:01.069Z,22.53
2018-07-03T22:15:29.859Z,22.46
2018-07-03T22:17:58.584Z,22.36
2018-07-03T22:20:27.241Z,22.19
2018-07-03T22:22:55.990Z,22.23
2018-07-03T22:25:24.707Z,22.14
2018-07-03T22:27:53.462Z,22.05
2018-07-03T22:30:22.457Z,22.01
2018-07-03T22:32:51.103Z,22.04
2018-07-03T22:35:19.858Z,21.91
2018-07-03T23:02:41.504Z,21.79
2018-07-03T23:05:10.211Z,21.72
2018-07-03T23:07:39.625Z,21.66
2018-07-03T23:10:08.279Z,21.63
2018-07-03T23:12:37.008Z,21.67
2018-07-03T23:15:05.846Z,21.63
2018-07-03T23:17:34.539Z,21.54
2018-07-03T23:20:03.332Z,21.55
2018-07-03T23:22:32.107Z,21.54
2018-07-03T23:25:00.786Z,21.56
2018-07-03T23:27:29.774Z,21.54
2018-07-03T23:32:26.161Z,21.54
2018-07-03T23:34:54.884Z,21.46
2018-07-03T23:37:23.601Z,21.42
2018-07-03T23:39:52.304Z,21.43
2018-07-03T23:42:21.027Z,21.40
2018-07-03T23:44:49.747Z,21.36
2018-07-03T23:47:29.602Z,21.33
2018-07-03T23:50:09.361Z,21.32
2018-07-03T23:52:49.208Z,21.25
2018-07-03T23:55:29.131Z,21.28
2018-07-03T23:58:08.898Z,21.27
